Terminal Aerodrome Forecast
Issued by NWS

Home | Current Version | Previous Version | Text Only | Print | Product List | Glossary On
Versions: 1 2 3 4 5 6 7 8 9 10 11 12 13 14 15
000
FTUS46 KSEW 040500
TAFBLI
TAF
KBLI 040520Z 0406/0506 00000KT P6SM SKC
     FM041500 17007KT P6SM BKN250
     FM041800 17013KT P6SM FEW025 SCT080 BKN250
     FM042100 17015G22KT P6SM SCT035 SCT080 SCT250=

USA.gov is the U.S. government's official web portal to all federal, state and local government web resources and services.